Time;durP1;ratioP1;P1;durP2;ratioP2;P2;SDS_P1;SDS_P2;PMS_P1;PMS_P2;Temp;Humidity;BMP_temperature;BMP_pressure;BME280_temperature;BME280_humidity;BME280_pressure;Samples;Min_cycle;Max_cycle;Signal;HPM_P1;HPM_P2
2022/05/04 00:01:32;;;;;;;4.23;3.83;;;14.60;99.90;;;;;;5047535;28;20211;-69
2022/05/04 00:03:59;;;;;;;3.77;3.40;;;14.60;99.90;;;;;;5047932;28;20208;-68
2022/05/04 00:06:27;;;;;;;3.90;3.60;;;14.60;99.90;;;;;;5060987;28;20215;-68
2022/05/04 00:08:54;;;;;;;4.13;3.87;;;14.60;99.90;;;;;;5067490;28;20236;-68
2022/05/04 00:11:21;;;;;;;4.03;3.73;;;14.50;99.90;;;;;;5067631;28;20207;-68
2022/05/04 00:13:48;;;;;;;4.00;3.70;;;14.50;99.90;;;;;;5067473;28;20199;-68
2022/05/04 00:16:15;;;;;;;4.63;4.33;;;14.40;99.90;;;;;;5067854;28;20238;-68
2022/05/04 00:18:42;;;;;;;4.60;4.20;;;14.30;99.90;;;;;;5067783;28;20258;-68
2022/05/04 00:21:09;;;;;;;4.77;4.07;;;14.10;99.90;;;;;;5067751;28;20269;-68
2022/05/04 00:23:35;;;;;;;4.33;3.93;;;13.80;99.90;;;;;;5067528;28;20562;-68
2022/05/04 00:26:04;;;;;;;3.80;3.50;;;13.70;99.90;;;;;;5060694;28;20643;-68
2022/05/04 00:28:33;;;;;;;4.00;3.70;;;13.80;99.90;;;;;;5058873;28;20775;-68
2022/05/04 00:30:59;;;;;;;4.20;3.90;;;13.80;99.90;;;;;;5071979;28;20203;-68
2022/05/04 00:33:26;;;;;;;5.63;4.00;;;13.70;99.90;;;;;;5071606;28;20207;-68
2022/05/04 00:35:53;;;;;;;5.00;4.10;;;13.70;99.90;;;;;;5071596;28;20210;-68
2022/05/04 00:38:19;;;;;;;4.13;3.83;;;13.70;99.90;;;;;;5068952;28;20256;-68
2022/05/04 00:40:46;;;;;;;4.03;3.73;;;13.80;99.90;;;;;;5051131;28;20242;-68
2022/05/04 00:43:23;;;;;;;3.60;3.40;;;13.80;99.90;;;;;;5051353;28;20253;-68
2022/05/04 00:45:51;;;;;;;4.13;3.83;;;13.80;99.90;;;;;;5051676;28;20234;-68
2022/05/04 00:48:18;;;;;;;4.30;4.00;;;13.90;99.90;;;;;;5051196;28;20235;-68
2022/05/04 00:50:47;;;;;;;4.33;3.97;;;13.90;99.90;;;;;;5050969;28;20203;-70
2022/05/04 00:53:14;;;;;;;4.20;3.90;;;13.80;99.90;;;;;;5050499;28;20681;-70
2022/05/04 00:55:40;;;;;;;3.80;3.60;;;13.70;99.90;;;;;;5051104;28;20204;-69
2022/05/04 01:00:54;;;;;;;5.00;3.67;;;13.80;99.90;;;;;;5053582;28;20490;-69
2022/05/04 01:03:21;;;;;;;3.97;3.67;;;13.50;99.90;;;;;;5068839;28;20607;-69
2022/05/04 01:05:48;;;;;;;3.97;3.67;;;13.50;99.90;;;;;;5070908;28;20208;-68
2022/05/04 01:08:14;;;;;;;4.40;4.00;;;13.40;99.90;;;;;;5052048;28;20775;-68
2022/05/04 01:10:41;;;;;;;4.63;4.20;;;13.30;99.90;;;;;;5068528;28;20208;-68
2022/05/04 01:13:08;;;;;;;4.23;3.67;;;13.10;99.90;;;;;;5070378;28;20700;-69
2022/05/04 01:15:35;;;;;;;4.27;3.97;;;13.00;99.90;;;;;;5070682;28;20212;-68
2022/05/04 01:18:03;;;;;;;4.70;4.30;;;12.90;99.90;;;;;;5070210;28;20640;-68
2022/05/04 01:20:30;;;;;;;4.57;4.27;;;12.90;99.90;;;;;;5049968;28;20659;-69
2022/05/04 01:22:57;;;;;;;4.70;4.30;;;12.90;99.90;;;;;;5050680;28;20212;-68
2022/05/04 01:25:24;;;;;;;4.33;4.03;;;12.90;99.90;;;;;;5065740;28;20203;-69
2022/05/04 01:27:51;;;;;;;4.63;4.20;;;12.90;99.90;;;;;;5070377;28;20327;-68
2022/05/04 01:30:18;;;;;;;4.40;4.00;;;12.90;99.90;;;;;;5069977;28;20736;-69
2022/05/04 01:32:44;;;;;;;4.73;4.33;;;12.90;99.90;;;;;;5066458;28;20269;-70
2022/05/04 01:35:11;;;;;;;4.43;4.00;;;12.90;99.90;;;;;;5050740;28;20593;-69
2022/05/04 01:37:38;;;;;;;4.77;4.40;;;13.00;99.90;;;;;;5049769;28;20212;-69
2022/05/04 01:40:07;;;;;;;4.60;4.30;;;13.00;99.90;;;;;;5049648;28;20255;-69
2022/05/04 01:42:34;;;;;;;5.10;4.17;;;12.90;99.90;;;;;;5049881;28;20557;-69
2022/05/04 01:45:01;;;;;;;5.63;4.20;;;13.00;99.90;;;;;;5050071;28;20219;-68
2022/05/04 01:47:27;;;;;;;5.10;4.70;;;12.90;99.90;;;;;;5050047;28;20223;-69
2022/05/04 01:49:54;;;;;;;4.77;4.30;;;12.90;99.90;;;;;;5050112;28;20223;-68
2022/05/04 01:52:21;;;;;;;4.70;4.33;;;12.90;99.90;;;;;;5061707;28;20226;-68
2022/05/04 01:54:47;;;;;;;4.70;4.23;;;12.90;99.90;;;;;;5069830;28;20627;-68
2022/05/04 01:57:15;;;;;;;5.13;4.73;;;12.80;99.90;;;;;;5070136;28;20254;-68
2022/05/04 01:59:42;;;;;;;4.77;4.27;;;12.80;99.90;;;;;;5069908;28;20207;-69
2022/05/04 02:02:09;;;;;;;4.70;4.30;;;12.70;99.90;;;;;;5054225;28;20200;-68
2022/05/04 02:04:36;;;;;;;4.77;4.47;;;12.70;99.90;;;;;;5049754;28;20616;-68
2022/05/04 02:07:03;;;;;;;5.23;4.10;;;12.60;99.90;;;;;;5068013;28;20658;-68
2022/05/04 02:09:30;;;;;;;4.90;4.60;;;12.60;99.90;;;;;;5069410;28;20326;-69
2022/05/04 02:11:57;;;;;;;4.80;4.40;;;12.50;99.90;;;;;;5070071;28;20207;-68
2022/05/04 02:14:26;;;;;;;5.60;5.10;;;12.40;99.90;;;;;;5069586;28;20212;-68
2022/05/04 02:16:52;;;;;;;4.63;4.33;;;12.50;99.90;;;;;;5069600;28;20662;-68
2022/05/04 02:19:19;;;;;;;4.50;4.10;;;12.50;99.90;;;;;;5069500;28;20222;-69
2022/05/04 02:21:46;;;;;;;5.20;4.33;;;12.50;99.90;;;;;;5062947;28;20286;-68
2022/05/04 02:24:12;;;;;;;4.77;4.37;;;12.40;99.90;;;;;;5065921;28;20260;-68
2022/05/04 02:26:39;;;;;;;4.73;4.20;;;12.40;99.90;;;;;;5069491;28;20204;-69
2022/05/04 02:29:06;;;;;;;6.10;4.30;;;12.40;99.90;;;;;;5069330;28;20232;-68
2022/05/04 02:31:34;;;;;;;4.50;4.10;;;12.40;99.90;;;;;;5067740;28;20207;-68
2022/05/04 02:34:00;;;;;;;4.83;4.43;;;12.40;99.90;;;;;;5069104;28;20203;-69
2022/05/04 02:39:11;;;;;;;4.50;4.10;;;12.20;99.90;;;;;;5066145;28;20207;-70
2022/05/04 02:41:38;;;;;;;4.83;4.43;;;12.10;99.90;;;;;;5067025;28;20203;-68
2022/05/04 02:44:05;;;;;;;4.67;4.27;;;12.10;99.90;;;;;;5066868;28;20242;-68
2022/05/04 02:46:33;;;;;;;4.70;4.30;;;12.10;99.90;;;;;;5066538;28;20219;-68
2022/05/04 02:49:00;;;;;;;4.83;4.43;;;12.00;99.90;;;;;;5066894;28;20285;-69
2022/05/04 02:51:26;;;;;;;5.10;4.60;;;12.00;99.90;;;;;;5061218;28;20220;-69
2022/05/04 02:53:53;;;;;;;4.70;4.30;;;12.00;99.90;;;;;;5053392;28;20265;-69
2022/05/04 02:56:20;;;;;;;4.87;4.47;;;12.10;99.90;;;;;;5066977;28;20212;-69
2022/05/04 02:58:49;;;;;;;7.03;4.37;;;12.10;99.90;;;;;;5056965;28;20204;-68
2022/05/04 03:04:06;;;;;;;4.23;3.93;;;12.10;99.90;;;;;;5024692;28;20204;-68
2022/05/04 03:06:33;;;;;;;4.73;4.43;;;12.20;99.90;;;;;;5046845;28;20196;-68
2022/05/04 03:09:00;;;;;;;5.13;4.53;;;12.20;99.90;;;;;;5046309;28;20297;-69
2022/05/04 03:14:11;;;;;;;6.37;4.43;;;12.30;99.90;;;;;;5048476;28;20195;-69
2022/05/04 03:16:39;;;;;;;4.73;4.33;;;12.30;99.90;;;;;;5052861;28;20212;-69
2022/05/04 03:19:08;;;;;;;5.97;5.27;;;12.30;99.90;;;;;;5068190;28;20261;-69
2022/05/04 03:21:35;;;;;;;4.77;4.37;;;12.30;99.90;;;;;;5062082;28;20273;-69
2022/05/04 03:24:02;;;;;;;5.00;4.60;;;12.30;99.90;;;;;;5061763;28;20257;-69
2022/05/04 03:26:29;;;;;;;5.20;4.80;;;12.20;99.90;;;;;;5067458;28;20204;-69
2022/05/04 03:28:56;;;;;;;5.10;4.63;;;12.10;99.90;;;;;;5067806;28;20239;-69
2022/05/04 03:31:23;;;;;;;6.83;4.57;;;12.00;99.90;;;;;;5067370;28;20822;-68
2022/05/04 03:33:50;;;;;;;5.60;5.07;;;12.00;99.90;;;;;;5068068;28;20257;-69
2022/05/04 03:36:18;;;;;;;5.57;5.17;;;12.00;99.90;;;;;;5067672;28;20207;-69
2022/05/04 03:38:45;;;;;;;4.63;4.33;;;11.90;99.90;;;;;;5067634;28;20265;-69
2022/05/04 03:41:11;;;;;;;16.83;5.60;;;11.90;99.90;;;;;;5067035;28;20324;-69
2022/05/04 03:43:38;;;;;;;5.70;5.20;;;11.90;99.90;;;;;;5067499;28;20262;-68
2022/05/04 03:46:15;;;;;;;6.57;5.30;;;11.90;99.90;;;;;;5067862;28;20230;-69
2022/05/04 03:48:43;;;;;;;5.47;4.97;;;11.90;99.90;;;;;;5067526;28;20570;-69
2022/05/04 03:51:10;;;;;;;5.13;4.73;;;11.90;99.90;;;;;;5065585;28;20215;-69
2022/05/04 03:53:38;;;;;;;5.63;4.70;;;11.80;99.90;;;;;;5047584;28;20291;-69
2022/05/04 03:56:08;;;;;;;4.97;4.63;;;11.80;99.90;;;;;;5047588;28;20900;-69
2022/05/04 03:58:37;;;;;;;5.10;4.70;;;11.80;99.90;;;;;;5057557;28;20229;-69
2022/05/04 04:01:05;;;;;;;5.20;4.80;;;11.80;99.90;;;;;;5060797;28;20273;-69
2022/05/04 04:03:32;;;;;;;5.70;4.83;;;11.80;99.90;;;;;;5047582;28;20351;-68
2022/05/04 04:05:59;;;;;;;5.23;4.73;;;11.80;99.90;;;;;;5047577;28;20278;-68
2022/05/04 04:08:26;;;;;;;4.70;4.40;;;11.80;99.90;;;;;;5047108;28;20752;-68
2022/05/04 04:10:54;;;;;;;5.33;4.73;;;11.80;99.90;;;;;;5047653;28;20301;-68
2022/05/04 04:13:21;;;;;;;7.73;4.93;;;11.90;99.90;;;;;;5056227;28;20267;-68
2022/05/04 04:15:51;;;;;;;5.47;4.90;;;12.00;99.90;;;;;;5067750;28;20203;-68
2022/05/04 04:18:18;;;;;;;5.90;4.63;;;12.00;99.90;;;;;;5067453;28;20239;-68
2022/05/04 04:23:37;;;;;;;6.00;5.13;;;11.90;99.90;;;;;;5025246;28;20422;-68
2022/05/04 04:26:10;;;;;;;5.57;5.07;;;11.90;99.90;;;;;;5047096;28;20678;-68
2022/05/04 04:28:39;;;;;;;5.80;5.10;;;11.80;99.90;;;;;;5046882;28;20231;-68
2022/05/04 04:31:08;;;;;;;5.40;4.63;;;11.80;99.90;;;;;;5047267;28;20208;-68
2022/05/04 04:33:35;;;;;;;5.67;5.20;;;11.80;99.90;;;;;;5046652;28;20701;-68
2022/05/04 04:36:05;;;;;;;5.90;5.40;;;11.80;99.90;;;;;;5047028;28;20580;-68
2022/05/04 04:38:32;;;;;;;7.67;5.43;;;11.90;99.90;;;;;;5046500;28;20266;-68
2022/05/04 04:40:59;;;;;;;6.13;5.63;;;11.80;99.90;;;;;;5046643;28;20270;-68
2022/05/04 04:43:27;;;;;;;6.67;5.47;;;11.70;99.90;;;;;;5065854;28;20204;-68
2022/05/04 04:45:53;;;;;;;5.90;5.40;;;11.70;99.90;;;;;;5066927;28;20207;-68
2022/05/04 04:48:21;;;;;;;5.90;5.33;;;11.70;99.90;;;;;;5064714;28;20698;-68
2022/05/04 04:50:48;;;;;;;6.07;5.50;;;11.80;99.90;;;;;;5067003;28;20215;-68
2022/05/04 04:53:15;;;;;;;6.17;5.33;;;11.80;99.90;;;;;;5047525;28;20226;-68
2022/05/04 04:55:42;;;;;;;7.27;6.60;;;11.70;99.90;;;;;;5046716;28;20212;-68
2022/05/04 04:58:09;;;;;;;6.37;5.87;;;11.60;99.90;;;;;;5046501;28;20740;-68
2022/05/04 05:00:37;;;;;;;7.03;6.37;;;11.70;99.90;;;;;;5049372;28;20203;-68
2022/05/04 05:03:04;;;;;;;7.83;5.80;;;11.70;99.90;;;;;;5066313;28;20203;-68
2022/05/04 05:05:31;;;;;;;7.60;5.90;;;11.90;99.90;;;;;;5066426;28;20208;-69
2022/05/04 05:07:57;;;;;;;8.60;6.13;;;12.00;99.90;;;;;;5066565;28;20235;-69
2022/05/04 05:10:24;;;;;;;6.13;5.60;;;12.20;99.90;;;;;;5065302;28;20240;-69
2022/05/04 05:12:51;;;;;;;6.67;6.07;;;12.10;99.90;;;;;;5064555;28;20251;-68
2022/05/04 05:18:05;;;;;;;7.73;6.80;;;12.00;99.90;;;;;;5070348;28;20214;-69
2022/05/04 05:20:32;;;;;;;9.00;6.07;;;11.90;99.90;;;;;;5070308;28;20211;-68
2022/05/04 05:22:59;;;;;;;7.50;6.53;;;12.00;99.90;;;;;;5070281;28;20601;-69
2022/05/04 05:25:26;;;;;;;7.63;6.50;;;12.00;99.90;;;;;;5070059;28;20602;-69
2022/05/04 05:27:53;;;;;;;7.83;7.03;;;12.10;99.90;;;;;;5069678;28;20678;-69
2022/05/04 05:30:19;;;;;;;8.63;6.90;;;12.20;99.90;;;;;;5070165;28;20257;-69
2022/05/04 05:32:46;;;;;;;9.10;6.40;;;12.20;99.90;;;;;;5069923;28;20625;-68
2022/05/04 05:35:14;;;;;;;8.50;6.70;;;12.20;99.90;;;;;;5070025;28;20265;-69
2022/05/04 05:37:41;;;;;;;11.80;7.50;;;12.20;99.90;;;;;;5070147;28;20203;-69
2022/05/04 05:40:08;;;;;;;8.97;7.30;;;12.30;99.90;;;;;;5069820;28;20292;-68
2022/05/04 05:42:35;;;;;;;7.27;6.57;;;12.30;99.90;;;;;;5069402;28;20230;-68
2022/05/04 05:45:01;;;;;;;9.90;7.40;;;12.20;99.90;;;;;;5069972;28;20257;-69
2022/05/04 05:47:28;;;;;;;11.53;7.23;;;12.20;99.90;;;;;;5069932;28;20231;-68
2022/05/04 05:49:55;;;;;;;7.37;6.77;;;12.10;99.90;;;;;;5069127;28;20239;-68
2022/05/04 05:52:23;;;;;;;7.67;6.97;;;12.30;99.90;;;;;;5061469;28;20278;-69
2022/05/04 05:54:51;;;;;;;10.53;7.20;;;12.40;99.90;;;;;;5069183;28;20731;-69
2022/05/04 05:57:18;;;;;;;8.27;7.57;;;12.40;99.90;;;;;;5069309;28;20836;-69
2022/05/04 05:59:44;;;;;;;11.47;7.13;;;12.30;99.90;;;;;;5069597;28;20207;-68
2022/05/04 06:02:11;;;;;;;8.63;7.13;;;12.40;99.90;;;;;;5053411;28;20206;-69
2022/05/04 06:04:38;;;;;;;8.10;7.23;;;12.40;99.90;;;;;;5049032;28;20561;-69
2022/05/04 06:07:05;;;;;;;7.53;6.93;;;12.40;99.90;;;;;;5068060;28;20204;-68
2022/05/04 06:09:33;;;;;;;7.63;7.00;;;12.50;99.90;;;;;;5068683;28;20708;-69
2022/05/04 06:12:00;;;;;;;12.30;7.90;;;12.50;99.90;;;;;;5069517;28;20203;-69
2022/05/04 06:14:26;;;;;;;8.03;6.80;;;12.70;99.90;;;;;;5069227;28;20211;-68
2022/05/04 06:16:53;;;;;;;8.13;7.10;;;12.80;99.90;;;;;;5069227;28;20292;-69
2022/05/04 06:19:20;;;;;;;8.37;7.47;;;12.80;99.90;;;;;;5069289;28;20225;-69
2022/05/04 06:21:46;;;;;;;9.97;8.17;;;12.90;99.90;;;;;;5062092;28;20269;-68
2022/05/04 06:24:13;;;;;;;11.33;7.33;;;12.90;99.90;;;;;;5065025;28;20207;-69
2022/05/04 06:26:41;;;;;;;10.57;7.23;;;12.70;99.90;;;;;;5067793;28;20262;-68
2022/05/04 06:29:08;;;;;;;8.40;7.63;;;12.70;99.90;;;;;;5068884;28;20284;-69
2022/05/04 06:34:18;;;;;;;7.43;6.73;;;12.90;99.90;;;;;;5068927;28;20199;-69
2022/05/04 06:36:46;;;;;;;7.60;6.90;;;13.00;99.90;;;;;;5069143;28;20243;-69
2022/05/04 06:39:13;;;;;;;11.53;6.83;;;13.10;99.90;;;;;;5067038;28;20212;-69
2022/05/04 06:41:41;;;;;;;7.40;6.80;;;13.20;99.90;;;;;;5068720;28;20207;-69
2022/05/04 06:44:08;;;;;;;7.70;7.00;;;13.30;99.90;;;;;;5068788;28;20235;-68
2022/05/04 06:46:41;;;;;;;8.10;7.30;;;13.30;99.90;;;;;;5068008;28;20662;-68
2022/05/04 06:49:09;;;;;;;7.93;7.17;;;13.30;99.90;;;;;;5068490;28;20219;-68
2022/05/04 06:51:36;;;;;;;7.90;7.10;;;13.40;99.90;;;;;;5062862;28;20243;-68
2022/05/04 06:54:03;;;;;;;8.50;7.07;;;13.40;99.90;;;;;;5048701;28;20231;-68
2022/05/04 06:56:31;;;;;;;8.60;7.00;;;13.50;99.90;;;;;;5048627;28;20273;-69
2022/05/04 06:58:58;;;;;;;8.47;6.87;;;13.60;99.90;;;;;;5062007;28;20360;-68
2022/05/04 07:01:27;;;;;;;9.57;7.30;;;13.60;99.90;;;;;;5064878;28;20725;-68
2022/05/04 07:03:54;;;;;;;7.80;7.10;;;13.70;99.90;;;;;;5048568;28;20262;-69
2022/05/04 07:06:20;;;;;;;7.67;7.07;;;13.60;99.90;;;;;;5047993;28;20744;-69
2022/05/04 07:08:47;;;;;;;7.83;7.03;;;13.70;99.90;;;;;;5047927;28;20228;-69
2022/05/04 07:11:14;;;;;;;7.30;6.60;;;13.70;99.90;;;;;;5048584;28;20614;-68
2022/05/04 07:13:43;;;;;;;11.77;6.60;;;13.70;99.90;;;;;;5048393;28;20206;-69
2022/05/04 07:16:11;;;;;;;8.30;7.10;;;13.80;99.90;;;;;;5048839;28;20288;-68
2022/05/04 07:18:37;;;;;;;7.47;6.23;;;13.80;99.90;;;;;;5048146;28;20637;-69
2022/05/04 07:21:07;;;;;;;7.83;6.80;;;14.00;99.90;;;;;;5048968;28;20215;-69
2022/05/04 07:23:33;;;;;;;11.53;7.80;;;14.00;99.90;;;;;;5056321;28;20736;-69
2022/05/04 07:26:00;;;;;;;8.73;7.50;;;14.00;99.90;;;;;;5048160;28;20767;-69
2022/05/04 07:28:27;;;;;;;8.00;7.30;;;13.90;99.90;;;;;;5047955;28;20208;-68
2022/05/04 07:30:54;;;;;;;32.63;9.83;;;13.80;99.90;;;;;;5047994;28;20231;-69
2022/05/04 07:33:22;;;;;;;8.63;7.53;;;13.80;99.90;;;;;;5047813;28;20246;-69
2022/05/04 07:35:48;;;;;;;9.53;7.27;;;13.90;99.90;;;;;;5058386;28;20289;-68
2022/05/04 07:38:15;;;;;;;10.40;7.20;;;14.00;99.90;;;;;;5067432;28;20216;-69
2022/05/04 07:43:26;;;;;;;7.10;6.53;;;14.20;99.90;;;;;;5067293;28;20213;-68
2022/05/04 07:45:54;;;;;;;9.83;6.93;;;14.30;99.90;;;;;;5067386;28;20212;-68
2022/05/04 07:48:22;;;;;;;8.83;6.17;;;14.40;99.90;;;;;;5067113;28;20662;-68
2022/05/04 07:50:51;;;;;;;9.27;5.83;;;14.40;99.90;;;;;;5067360;28;20231;-68
2022/05/04 07:53:18;;;;;;;9.87;5.13;;;14.50;99.90;;;;;;5047705;28;20611;-68
2022/05/04 07:55:45;;;;;;;7.00;4.93;;;14.60;99.90;;;;;;5047561;28;20279;-68
2022/05/04 07:58:12;;;;;;;5.60;5.10;;;14.70;99.90;;;;;;5054472;28;20207;-68
2022/05/04 08:06:08;;;;;;;5.77;4.80;;;14.80;99.90;;;;;;5047044;28;20866;-68
2022/05/04 08:08:35;;;;;;;8.83;4.37;;;14.90;99.90;;;;;;5046301;28;20227;-68
2022/05/04 08:11:04;;;;;;;5.07;3.37;;;15.00;99.90;;;;;;5047254;28;20235;-68
2022/05/04 08:13:31;;;;;;;5.57;3.87;;;15.00;99.90;;;;;;5046917;28;20219;-68
2022/05/04 08:15:58;;;;;;;7.33;3.90;;;15.10;99.90;;;;;;5047123;28;20219;-68
2022/05/04 08:18:28;;;;;;;6.53;3.77;;;15.20;99.90;;;;;;5047065;28;20220;-68
2022/05/04 08:20:57;;;;;;;4.13;3.60;;;15.30;99.90;;;;;;5047054;28;20269;-68
2022/05/04 08:23:25;;;;;;;4.20;3.80;;;15.40;99.90;;;;;;5056434;28;20291;-68
2022/05/04 08:25:52;;;;;;;5.43;4.73;;;15.40;99.70;;;;;;5067268;28;20280;-68
2022/05/04 08:28:19;;;;;;;3.73;3.43;;;15.60;99.90;;;;;;5067074;28;20231;-68
2022/05/04 08:30:46;;;;;;;3.77;3.43;;;15.70;99.90;;;;;;5067436;28;20558;-68
2022/05/04 08:33:13;;;;;;;5.53;3.07;;;15.80;99.90;;;;;;5065222;28;20215;-68
2022/05/04 08:35:40;;;;;;;4.30;3.50;;;15.90;99.90;;;;;;5067200;28;20244;-68
2022/05/04 08:38:07;;;;;;;4.60;3.50;;;16.00;99.50;;;;;;5066657;28;20208;-68
2022/05/04 08:40:34;;;;;;;3.10;2.90;;;16.10;99.40;;;;;;5066331;28;20450;-68
2022/05/04 08:43:07;;;;;;;3.23;2.90;;;16.10;99.00;;;;;;5066701;28;20265;-68
2022/05/04 08:45:38;;;;;;;3.67;3.37;;;16.20;98.60;;;;;;5066435;28;20196;-68
2022/05/04 08:48:05;;;;;;;3.20;3.00;;;16.30;98.20;;;;;;5066683;28;20301;-68
2022/05/04 08:50:34;;;;;;;3.13;2.83;;;16.30;97.80;;;;;;5069605;28;20241;-68
2022/05/04 08:53:03;;;;;;;4.73;2.83;;;16.40;97.40;;;;;;5070299;28;20214;-68
2022/05/04 08:55:30;;;;;;;4.30;3.03;;;16.50;97.60;;;;;;5070440;28;20207;-68
2022/05/04 08:57:57;;;;;;;3.53;2.93;;;16.50;97.40;;;;;;5070489;28;20292;-68
2022/05/04 09:00:25;;;;;;;3.10;2.90;;;16.50;97.10;;;;;;5070256;28;20206;-68
2022/05/04 09:02:51;;;;;;;3.30;2.97;;;16.60;96.90;;;;;;5070462;28;20294;-68
2022/05/04 09:05:20;;;;;;;3.13;2.63;;;16.70;96.50;;;;;;5070704;28;20211;-68
2022/05/04 09:07:49;;;;;;;2.83;2.63;;;16.80;95.90;;;;;;5070509;28;20277;-68
2022/05/04 09:10:19;;;;;;;2.60;2.40;;;16.80;96.00;;;;;;5070068;28;20259;-68
2022/05/04 09:12:47;;;;;;;3.07;2.60;;;16.90;95.60;;;;;;5070436;28;20203;-68
2022/05/04 09:15:21;;;;;;;2.77;2.67;;;17.00;95.70;;;;;;5070616;28;20210;-68
2022/05/04 09:17:55;;;;;;;4.27;2.80;;;17.00;96.00;;;;;;5070608;28;20611;-68
2022/05/04 09:23:13;;;;;;;3.40;3.07;;;17.10;95.90;;;;;;5051285;28;20237;-68
2022/05/04 09:25:41;;;;;;;3.53;3.00;;;17.20;95.70;;;;;;5050074;28;20274;-68
2022/05/04 09:28:12;;;;;;;2.83;2.63;;;17.30;95.80;;;;;;5059480;28;20218;-68
2022/05/04 09:30:45;;;;;;;3.20;2.83;;;17.30;95.90;;;;;;5069891;28;20239;-68
2022/05/04 09:33:12;;;;;;;2.93;2.73;;;17.40;96.10;;;;;;5069583;28;20705;-68
2022/05/04 09:35:41;;;;;;;3.60;3.40;;;17.50;95.80;;;;;;5069743;28;20204;-68
2022/05/04 09:46:44;;;;;;;3.83;3.37;;;17.80;95.30;;;;;;5069567;28;20283;-68
2022/05/04 09:49:15;;;;;;;3.63;3.40;;;17.70;95.00;;;;;;5070000;28;20241;-68
2022/05/04 09:51:45;;;;;;;3.40;3.10;;;17.80;94.90;;;;;;5069488;28;20223;-68
2022/05/04 09:54:20;;;;;;;3.03;2.83;;;17.80;95.10;;;;;;5069628;28;20207;-68
2022/05/04 09:56:50;;;;;;;3.30;3.00;;;17.80;95.10;;;;;;5069567;28;20210;-68
2022/05/04 09:59:18;;;;;;;6.43;3.20;;;17.80;95.10;;;;;;5070027;28;20203;-68
2022/05/04 10:01:45;;;;;;;7.57;3.40;;;17.80;94.70;;;;;;5069489;28;20245;-68
2022/05/04 10:04:12;;;;;;;4.40;2.80;;;17.80;94.80;;;;;;5069654;28;20206;-68
2022/05/04 10:06:40;;;;;;;3.00;2.70;;;17.80;95.10;;;;;;5069957;28;20207;-68
2022/05/04 10:09:07;;;;;;;2.83;2.63;;;17.80;95.10;;;;;;5069420;28;20256;-68
2022/05/04 10:11:34;;;;;;;2.60;2.50;;;17.90;95.00;;;;;;5069376;28;20239;-68
2022/05/04 10:14:05;;;;;;;3.03;2.73;;;17.90;95.10;;;;;;5069742;28;21016;-68
2022/05/04 10:16:35;;;;;;;2.80;2.60;;;17.90;94.90;;;;;;5069579;28;20211;-68
2022/05/04 10:19:07;;;;;;;4.47;2.47;;;18.00;95.00;;;;;;5069991;28;20199;-69
2022/05/04 10:21:34;;;;;;;7.57;3.40;;;18.00;94.90;;;;;;5064214;28;20219;-68
2022/05/04 10:24:03;;;;;;;3.63;2.83;;;18.00;94.90;;;;;;5059409;28;20261;-69
2022/05/04 10:26:34;;;;;;;3.97;2.60;;;18.10;94.80;;;;;;5069099;28;20211;-68
2022/05/04 10:32:07;;;;;;;2.30;2.20;;;18.10;94.90;;;;;;5068855;28;20368;-68
2022/05/04 10:34:34;;;;;;;2.60;2.50;;;18.30;95.10;;;;;;5069176;28;20631;-68
2022/05/04 10:37:00;;;;;;;2.90;2.60;;;18.30;95.00;;;;;;5068969;28;20208;-68
2022/05/04 10:39:27;;;;;;;3.17;2.63;;;18.30;95.60;;;;;;5068693;28;20207;-68
2022/05/04 10:41:54;;;;;;;2.73;2.63;;;18.40;96.30;;;;;;5068728;28;20215;-68
2022/05/04 10:45:00;;;;;;;2.23;2.13;;;18.40;95.80;;;;;;5068572;28;20203;-68
2022/05/04 10:47:28;;;;;;;2.80;2.60;;;18.40;95.30;;;;;;5054774;28;20242;-68
2022/05/04 10:50:00;;;;;;;2.30;2.20;;;18.30;94.90;;;;;;5068262;28;20211;-68
2022/05/04 10:52:32;;;;;;;2.90;2.70;;;18.20;94.90;;;;;;5068205;28;20583;-68
2022/05/04 10:55:02;;;;;;;3.27;2.43;;;18.20;95.20;;;;;;5068315;28;20199;-68
2022/05/04 10:57:40;;;;;;;3.17;2.97;;;18.20;94.90;;;;;;5068395;28;20286;-68
2022/05/04 11:00:10;;;;;;;2.80;2.50;;;18.20;94.90;;;;;;5068354;28;20195;-68
2022/05/04 11:02:42;;;;;;;3.47;2.63;;;18.20;94.90;;;;;;5068128;28;20723;-68
2022/05/04 11:05:14;;;;;;;2.97;2.77;;;18.30;94.60;;;;;;5068382;28;20203;-68
2022/05/04 11:07:40;;;;;;;3.03;2.73;;;18.30;94.30;;;;;;5068064;28;20227;-68
2022/05/04 11:10:07;;;;;;;2.90;2.60;;;18.40;94.20;;;;;;5067911;28;20260;-68
2022/05/04 11:12:34;;;;;;;3.47;2.50;;;18.70;95.00;;;;;;5067308;28;20210;-68
2022/05/04 11:15:01;;;;;;;2.70;2.50;;;18.90;94.70;;;;;;5068310;28;20281;-68
2022/05/04 11:17:33;;;;;;;3.00;2.80;;;19.10;93.50;;;;;;5068106;28;20217;-68
2022/05/04 11:19:59;;;;;;;2.30;2.20;;;19.30;93.70;;;;;;5066858;28;20242;-68
2022/05/04 11:22:26;;;;;;;2.67;2.20;;;19.50;93.30;;;;;;5067326;28;20590;-68
2022/05/04 11:24:53;;;;;;;2.77;2.60;;;19.80;92.80;;;;;;5067552;28;20714;-68
2022/05/04 11:27:20;;;;;;;2.70;2.50;;;19.90;92.80;;;;;;5067670;28;20207;-68
2022/05/04 11:29:47;;;;;;;2.53;2.37;;;20.00;92.40;;;;;;5067704;28;20204;-68
2022/05/04 11:32:19;;;;;;;2.67;2.43;;;20.10;91.90;;;;;;5067566;28;20834;-68
2022/05/04 11:34:47;;;;;;;3.00;2.80;;;20.20;91.50;;;;;;5068090;28;20576;-68
2022/05/04 11:37:14;;;;;;;4.27;2.47;;;20.20;91.70;;;;;;5067893;28;20211;-68
2022/05/04 11:39:42;;;;;;;2.60;2.37;;;20.00;91.70;;;;;;5067527;28;20243;-68
2022/05/04 11:42:09;;;;;;;3.40;2.40;;;20.00;91.90;;;;;;5067982;28;20303;-68
2022/05/04 11:44:37;;;;;;;8.00;3.27;;;19.90;91.70;;;;;;5067469;28;20207;-68
2022/05/04 11:47:05;;;;;;;3.30;2.97;;;19.80;91.40;;;;;;5067537;28;20230;-68
2022/05/04 11:49:34;;;;;;;3.03;2.60;;;19.80;91.30;;;;;;5067815;28;20210;-68
2022/05/04 11:52:04;;;;;;;4.47;2.97;;;19.80;91.50;;;;;;5067806;28;20263;-68
2022/05/04 11:54:30;;;;;;;2.50;2.30;;;19.70;90.80;;;;;;5067046;28;20209;-68
2022/05/04 11:56:57;;;;;;;3.27;2.53;;;19.70;91.10;;;;;;5067619;28;20211;-68
2022/05/04 11:59:29;;;;;;;3.10;2.90;;;19.60;91.20;;;;;;5067521;28;20206;-68
2022/05/04 12:01:57;;;;;;;3.67;2.70;;;19.50;91.00;;;;;;5053618;28;20200;-68
2022/05/04 12:04:25;;;;;;;3.27;2.60;;;19.40;91.30;;;;;;5047825;28;20208;-68
2022/05/04 12:06:52;;;;;;;3.47;3.17;;;19.30;92.40;;;;;;5048103;28;20299;-68
2022/05/04 12:09:21;;;;;;;3.30;3.00;;;19.30;92.00;;;;;;5047500;28;20256;-68
2022/05/04 12:11:48;;;;;;;4.63;2.43;;;19.30;91.60;;;;;;5047488;28;20701;-68
2022/05/04 12:14:16;;;;;;;6.03;2.40;;;19.30;92.10;;;;;;5048049;28;20294;-68
2022/05/04 12:16:43;;;;;;;3.00;2.80;;;19.40;92.40;;;;;;5055654;28;20294;-68
2022/05/04 12:19:10;;;;;;;4.03;2.77;;;19.50;92.50;;;;;;5067910;28;20260;-68
2022/05/04 12:21:37;;;;;;;2.67;2.50;;;19.60;91.50;;;;;;5061376;28;20724;-68
2022/05/04 12:24:05;;;;;;;2.97;2.73;;;19.70;91.60;;;;;;5061407;28;20269;-68
2022/05/04 12:26:34;;;;;;;2.40;2.30;;;19.80;91.40;;;;;;5067197;28;20203;-68
2022/05/04 12:34:31;;;;;;;3.97;2.60;;;20.50;90.40;;;;;;5067151;28;20683;-68
2022/05/04 12:37:01;;;;;;;2.90;2.70;;;20.50;90.40;;;;;;5067094;28;20207;-68
2022/05/04 12:39:28;;;;;;;5.27;3.50;;;20.50;90.20;;;;;;5066365;28;20204;-68
2022/05/04 12:41:57;;;;;;;3.50;2.50;;;20.40;90.10;;;;;;5066826;28;20207;-68
2022/05/04 12:44:24;;;;;;;2.80;2.60;;;20.40;90.50;;;;;;5067024;28;20211;-68
2022/05/04 12:46:52;;;;;;;4.80;2.67;;;20.30;90.90;;;;;;5067108;28;20253;-68
2022/05/04 12:49:19;;;;;;;3.00;2.50;;;20.30;90.90;;;;;;5066789;28;20210;-68
2022/05/04 12:51:47;;;;;;;6.70;3.20;;;20.30;91.20;;;;;;5067217;28;20272;-68
2022/05/04 12:54:15;;;;;;;6.10;3.70;;;20.20;91.60;;;;;;5066696;28;20210;-68
2022/05/04 12:56:48;;;;;;;7.87;3.60;;;20.10;90.20;;;;;;5066313;28;20677;-68
2022/05/04 12:59:18;;;;;;;2.73;2.63;;;19.90;90.40;;;;;;5065517;28;20199;-68
2022/05/04 13:01:45;;;;;;;16.97;4.23;;;19.90;90.50;;;;;;5045739;28;20236;-68
2022/05/04 13:04:13;;;;;;;3.13;2.90;;;19.90;90.80;;;;;;5044976;28;20204;-68
2022/05/04 13:06:40;;;;;;;4.30;2.50;;;19.90;91.10;;;;;;5044558;28;20266;-68
2022/05/04 13:09:07;;;;;;;3.30;2.30;;;19.90;91.80;;;;;;5044285;28;20397;-68
2022/05/04 13:11:36;;;;;;;3.53;2.60;;;19.90;92.00;;;;;;5061662;28;20262;-68
2022/05/04 13:14:03;;;;;;;2.73;2.53;;;19.90;91.60;;;;;;5062705;28;20332;-68
2022/05/04 13:16:31;;;;;;;2.50;2.30;;;19.90;91.70;;;;;;5064825;28;20284;-68
2022/05/04 13:18:58;;;;;;;2.90;2.70;;;20.00;92.10;;;;;;5060719;28;20208;-68
2022/05/04 13:21:25;;;;;;;2.90;2.70;;;19.90;92.20;;;;;;5044761;28;20274;-68
2022/05/04 13:23:52;;;;;;;2.70;2.50;;;19.90;91.90;;;;;;5061881;28;20253;-68
2022/05/04 13:26:18;;;;;;;8.57;2.97;;;19.90;92.30;;;;;;5064892;28;20219;-68
2022/05/04 13:28:45;;;;;;;12.17;3.10;;;19.90;92.60;;;;;;5063961;28;20199;-68
2022/05/04 13:31:12;;;;;;;6.53;3.30;;;19.80;93.00;;;;;;5065215;28;20271;-68
2022/05/04 13:33:40;;;;;;;3.30;3.07;;;19.70;91.80;;;;;;5049524;28;20253;-68
2022/05/04 13:36:07;;;;;;;5.67;3.63;;;19.70;91.70;;;;;;5057589;28;20264;-68